| time (UTC) | temp C | wind direction | speed KPH | gust KPH | rain 1hr cm | rain 24hr cm | rain mn cm | humidity % | barometer mb |
| 20260905231818 | 15 | 280 | 8.0 | 0.0 | 0.00 | 0.00 | 0.00 | 58 | |
| 20260905222238 | 16 | 290 | 8.0 | 0.0 | 0.00 | 0.00 | 0.00 | 55 | |
| 20260905211833 | 17 | 290 | 8.0 | 0.0 | 0.00 | 0.00 | 0.00 | 51 | |
| 20260905201834 | 17 | 280 | 8.0 | 0.0 | 0.00 | 0.00 | 0.00 | 51 | |
| 20260905192152 | 17 | 290 | 11.3 | 0.0 | 0.00 | 0.00 | 0.00 | 48 | |
| 20260905181852 | 18 | 310 | 11.3 | 0.0 | 0.00 | 0.00 | 0.00 | 45 | |
| 20260905171851 | 21 | 310 | 14.5 | 0.0 | 0.00 | 0.00 | 0.00 | 40 | |
| 20260905162327 | 22 | 300 | 19.3 | 0.0 | 0.00 | 0.00 | 0.00 | 37 | |
| 20260905151744 | 22 | 300 | 14.5 | 0.0 | 0.00 | 0.00 | 0.00 | 40 | |
| 20260905141744 | 22 | 300 | 19.3 | 0.0 | 0.00 | 0.00 | 0.00 | 38 | |
| 20260905132038 | 22 | 270 | 11.3 | 0.0 | 0.00 | 0.00 | 0.00 | 43 | |
| 20260905121946 | 22 | 270 | 14.5 | 0.0 | 0.00 | 0.00 | 0.00 | 43 | |
| 20260905111920 | 22 | 270 | 11.3 | 0.0 | 0.00 | 0.00 | 0.00 | 49 | |
| 20260905102256 | 20 | 260 | 11.3 | 0.0 | 0.00 | 0.00 | 0.00 | 52 | |
| 20260905091845 | 17 | 250 | 11.3 | 0.0 | 0.00 | 0.00 | 0.00 | 63 | |
| 20260905081839 | 17 | 260 | 8.0 | 0.0 | 0.00 | 0.00 | 0.00 | 72 | |
| 20260905072140 | 16 | 0 | 8.0 | 0.0 | 0.00 | 0.00 | 0.00 | 77 | |
| 20260905061840 | 15 | 220 | 8.0 | 0.0 | 0.00 | 0.00 | 0.00 | 87 | |
| 20260905051838 | 13 | 0 | 3.2 | 0.0 | 0.00 | 0.00 | 0.00 | 87 | |
| 20260905042241 | 13 | 210 | 8.0 | 0.0 | 0.00 | 0.00 | 0.00 | 87 | |
| 20260905031840 | 16 | 260 | 11.3 | 0.0 | 0.00 | 0.00 | 0.00 | 72 | |
| 20260905021840 | 16 | 290 | 8.0 | 0.0 | 0.00 | 0.00 | 0.00 | 72 | |
| 20260905012140 | 17 | 290 | 11.3 | 0.0 | 0.00 | 0.00 | 0.00 | 63 | |
| 20260905001853 | 18 | 300 | 11.3 | 0.0 | 0.00 | 0.00 | 0.00 | 59 |